sensor_id;sensor_type;location;lat;lon;timestamp;pressure;altitude;pressure_sealevel;temperature;humidity
26112;BME280;13829;48.990;8.346;2023-12-29T00:00:58;100543.75;;;10.72;100.00
26112;BME280;13829;48.990;8.346;2023-12-29T00:03:26;100543.69;;;10.66;100.00
26112;BME280;13829;48.990;8.346;2023-12-29T00:05:53;100540.22;;;10.68;100.00
26112;BME280;13829;48.990;8.346;2023-12-29T00:08:20;100545.41;;;10.60;100.00
26112;BME280;13829;48.990;8.346;2023-12-29T00:10:47;100533.19;;;10.64;100.00
26112;BME280;13829;48.990;8.346;2023-12-29T00:13:14;100543.72;;;10.70;100.00
26112;BME280;13829;48.990;8.346;2023-12-29T00:15:51;100541.94;;;10.68;100.00
26112;BME280;13829;48.990;8.346;2023-12-29T00:18:19;100536.72;;;10.71;100.00
26112;BME280;13829;48.990;8.346;2023-12-29T00:20:46;100538.44;;;10.66;100.00
26112;BME280;13829;48.990;8.346;2023-12-29T00:23:14;100536.63;;;10.55;100.00
26112;BME280;13829;48.990;8.346;2023-12-29T00:25:41;100548.03;;;10.59;100.00
26112;BME280;13829;48.990;8.346;2023-12-29T00:28:08;100548.00;;;10.53;100.00
26112;BME280;13829;48.990;8.346;2023-12-29T00:30:38;100533.03;;;10.49;100.00
26112;BME280;13829;48.990;8.346;2023-12-29T00:33:07;100527.78;;;10.49;100.00
26112;BME280;13829;48.990;8.346;2023-12-29T00:35:37;100531.22;;;10.38;100.00
26112;BME280;13829;48.990;8.346;2023-12-29T00:38:04;100524.09;;;10.26;100.00
26112;BME280;13829;48.990;8.346;2023-12-29T00:40:31;100527.56;;;10.22;100.00
26112;BME280;13829;48.990;8.346;2023-12-29T00:43:00;100527.50;;;10.16;100.00
26112;BME280;13829;48.990;8.346;2023-12-29T00:45:27;100525.75;;;10.15;100.00
26112;BME280;13829;48.990;8.346;2023-12-29T00:47:58;100517.91;;;10.20;100.00
26112;BME280;13829;48.990;8.346;2023-12-29T00:50:26;100521.50;;;10.31;100.00
26112;BME280;13829;48.990;8.346;2023-12-29T00:52:54;100516.22;;;10.28;100.00
26112;BME280;13829;48.990;8.346;2023-12-29T00:55:21;100502.16;;;10.26;100.00
26112;BME280;13829;48.990;8.346;2023-12-29T00:57:47;100503.09;;;10.31;100.00
26112;BME280;13829;48.990;8.346;2023-12-29T01:00:15;100503.97;;;10.28;100.00
26112;BME280;13829;48.990;8.346;2023-12-29T01:02:42;100495.97;;;10.16;100.00
26112;BME280;13829;48.990;8.346;2023-12-29T01:05:09;100497.59;;;10.02;100.00
26112;BME280;13829;48.990;8.346;2023-12-29T01:07:37;100507.25;;;10.03;100.00
26112;BME280;13829;48.990;8.346;2023-12-29T01:10:06;100508.94;;;9.96;100.00
26112;BME280;13829;48.990;8.346;2023-12-29T01:12:34;100508.97;;;9.99;100.00
26112;BME280;13829;48.990;8.346;2023-12-29T01:15:01;100505.47;;;10.02;100.00
26112;BME280;13829;48.990;8.346;2023-12-29T01:17:28;100507.28;;;10.07;100.00
26112;BME280;13829;48.990;8.346;2023-12-29T01:19:55;100509.06;;;10.11;100.00
26112;BME280;13829;48.990;8.346;2023-12-29T01:22:22;100512.66;;;10.23;100.00
26112;BME280;13829;48.990;8.346;2023-12-29T01:24:50;100515.19;;;10.09;100.00
26112;BME280;13829;48.990;8.346;2023-12-29T01:27:17;100509.06;;;10.08;100.00
26112;BME280;13829;48.990;8.346;2023-12-29T01:29:44;100502.00;;;10.04;100.00
26112;BME280;13829;48.990;8.346;2023-12-29T01:32:11;100500.19;;;9.97;100.00
26112;BME280;13829;48.990;8.346;2023-12-29T01:34:38;100499.34;;;10.03;100.00
26112;BME280;13829;48.990;8.346;2023-12-29T01:37:05;100502.94;;;10.11;100.00
26112;BME280;13829;48.990;8.346;2023-12-29T01:39:33;100499.34;;;10.03;100.00
26112;BME280;13829;48.990;8.346;2023-12-29T01:42:03;100490.63;;;10.07;100.00
26112;BME280;13829;48.990;8.346;2023-12-29T01:44:30;100497.69;;;10.11;100.00
26112;BME280;13829;48.990;8.346;2023-12-29T01:47:01;100495.06;;;10.14;100.00
26112;BME280;13829;48.990;8.346;2023-12-29T01:49:29;100495.94;;;10.10;100.00
26112;BME280;13829;48.990;8.346;2023-12-29T01:51:58;100495.06;;;10.16;100.00
26112;BME280;13829;48.990;8.346;2023-12-29T01:54:33;100502.16;;;10.20;100.00
26112;BME280;13829;48.990;8.346;2023-12-29T01:57:03;100491.59;;;10.17;100.00
26112;BME280;13829;48.990;8.346;2023-12-29T01:59:31;100492.53;;;10.25;100.00
26112;BME280;13829;48.990;8.346;2023-12-29T02:01:58;100487.19;;;10.11;100.00
26112;BME280;13829;48.990;8.346;2023-12-29T02:04:27;100488.16;;;10.22;100.00
26112;BME280;13829;48.990;8.346;2023-12-29T02:06:55;100482.84;;;10.21;100.00
26112;BME280;13829;48.990;8.346;2023-12-29T02:09:22;100471.56;;;10.34;100.00
26112;BME280;13829;48.990;8.346;2023-12-29T02:11:49;100468.06;;;10.34;100.00
26112;BME280;13829;48.990;8.346;2023-12-29T02:14:19;100479.53;;;10.40;100.00
26112;BME280;13829;48.990;8.346;2023-12-29T02:16:58;100475.13;;;10.38;100.00
26112;BME280;13829;48.990;8.346;2023-12-29T02:19:38;100463.72;;;10.37;100.00
26112;BME280;13829;48.990;8.346;2023-12-29T02:22:07;100468.13;;;10.38;100.00
26112;BME280;13829;48.990;8.346;2023-12-29T02:24:35;100462.81;;;10.34;100.00
26112;BME280;13829;48.990;8.346;2023-12-29T02:27:14;100464.63;;;10.41;100.00
26112;BME280;13829;48.990;8.346;2023-12-29T02:29:57;100464.63;;;10.41;100.00
26112;BME280;13829;48.990;8.346;2023-12-29T02:32:29;100456.66;;;10.35;100.00
26112;BME280;13829;48.990;8.346;2023-12-29T02:34:59;100453.22;;;10.36;100.00
26112;BME280;13829;48.990;8.346;2023-12-29T02:37:27;100446.16;;;10.33;100.00
26112;BME280;13829;48.990;8.346;2023-12-29T02:39:57;100453.88;;;10.10;100.00
26112;BME280;13829;48.990;8.346;2023-12-29T02:42:26;100442.56;;;10.17;100.00
26112;BME280;13829;48.990;8.346;2023-12-29T02:44:53;100443.47;;;10.24;100.00
26112;BME280;13829;48.990;8.346;2023-12-29T02:47:20;100428.56;;;10.21;100.00
26112;BME280;13829;48.990;8.346;2023-12-29T02:49:47;100427.75;;;10.28;100.00
26112;BME280;13829;48.990;8.346;2023-12-29T02:52:15;100428.56;;;10.21;100.00
26112;BME280;13829;48.990;8.346;2023-12-29T02:54:42;100432.84;;;10.10;100.00
26112;BME280;13829;48.990;8.346;2023-12-29T02:57:09;100438.97;;;10.06;100.00
26112;BME280;13829;48.990;8.346;2023-12-29T02:59:37;100440.59;;;9.91;100.00
26112;BME280;13829;48.990;8.346;2023-12-29T03:02:04;100440.63;;;9.96;100.00
26112;BME280;13829;48.990;8.346;2023-12-29T03:04:31;100432.81;;;10.07;100.00
26112;BME280;13829;48.990;8.346;2023-12-29T03:06:58;100438.81;;;9.89;100.00
26112;BME280;13829;48.990;8.346;2023-12-29T03:09:25;100437.09;;;9.92;100.00
26112;BME280;13829;48.990;8.346;2023-12-29T03:11:52;100435.31;;;9.88;100.00
26112;BME280;13829;48.990;8.346;2023-12-29T03:14:19;100441.59;;;10.09;100.00
26112;BME280;13829;48.990;8.346;2023-12-29T03:16:47;100438.09;;;10.10;100.00
26112;BME280;13829;48.990;8.346;2023-12-29T03:19:14;100436.34;;;10.09;100.00
26112;BME280;13829;48.990;8.346;2023-12-29T03:21:41;100438.06;;;10.07;100.00
26112;BME280;13829;48.990;8.346;2023-12-29T03:24:08;100441.66;;;10.15;100.00
26112;BME280;13829;48.990;8.346;2023-12-29T03:26:35;100439.94;;;10.19;100.00
26112;BME280;13829;48.990;8.346;2023-12-29T03:29:02;100442.56;;;10.17;100.00
26112;BME280;13829;48.990;8.346;2023-12-29T03:31:29;100432.91;;;10.21;100.00
26112;BME280;13829;48.990;8.346;2023-12-29T03:33:58;100433.81;;;10.21;100.00
26112;BME280;13829;48.990;8.346;2023-12-29T03:36:25;100423.34;;;10.27;100.00
26112;BME280;13829;48.990;8.346;2023-12-29T03:38:51;100428.56;;;10.24;100.00
26112;BME280;13829;48.990;8.346;2023-12-29T03:41:18;100424.25;;;10.33;100.00
26112;BME280;13829;48.990;8.346;2023-12-29T03:43:45;100428.56;;;10.24;100.00
26112;BME280;13829;48.990;8.346;2023-12-29T03:46:16;100429.44;;;10.23;100.00
26112;BME280;13829;48.990;8.346;2023-12-29T03:48:44;100436.44;;;10.24;100.00
26112;BME280;13829;48.990;8.346;2023-12-29T03:51:13;100424.13;;;10.14;100.00
26112;BME280;13829;48.990;8.346;2023-12-29T03:53:40;100435.53;;;10.19;100.00
26112;BME280;13829;48.990;8.346;2023-12-29T03:56:08;100438.22;;;10.22;100.00
26112;BME280;13829;48.990;8.346;2023-12-29T03:58:36;100438.16;;;10.18;100.00
26112;BME280;13829;48.990;8.346;2023-12-29T04:01:03;100429.41;;;10.17;100.00
26112;BME280;13829;48.990;8.346;2023-12-29T04:03:30;100432.88;;;10.13;100.00
26112;BME280;13829;48.990;8.346;2023-12-29T04:05:57;100431.13;;;10.15;100.00
26112;BME280;13829;48.990;8.346;2023-12-29T04:08:25;100424.97;;;10.10;100.00
26112;BME280;13829;48.990;8.346;2023-12-29T04:10:52;100418.84;;;10.14;100.00
26112;BME280;13829;48.990;8.346;2023-12-29T04:13:19;100435.53;;;10.21;100.00
26112;BME280;13829;48.990;8.346;2023-12-29T04:15:46;100429.38;;;10.14;100.00
26112;BME280;13829;48.990;8.346;2023-12-29T04:18:13;100419.78;;;10.18;100.00
26112;BME280;13829;48.990;8.346;2023-12-29T04:20:40;100432.03;;;10.17;100.00
26112;BME280;13829;48.990;8.346;2023-12-29T04:23:07;100425.97;;;10.27;100.00
26112;BME280;13829;48.990;8.346;2023-12-29T04:25:36;100428.59;;;10.32;100.00
26112;BME280;13829;48.990;8.346;2023-12-29T04:28:03;100427.75;;;10.32;100.00
26112;BME280;13829;48.990;8.346;2023-12-29T04:30:30;100431.31;;;10.37;100.00
26112;BME280;13829;48.990;8.346;2023-12-29T04:32:57;100425.22;;;10.42;100.00
26112;BME280;13829;48.990;8.346;2023-12-29T04:35:24;100426.06;;;10.40;100.00
26112;BME280;13829;48.990;8.346;2023-12-29T04:37:51;100434.72;;;10.29;100.00
26112;BME280;13829;48.990;8.346;2023-12-29T04:40:19;100432.13;;;10.31;100.00
26112;BME280;13829;48.990;8.346;2023-12-29T04:42:47;100440.09;;;10.42;100.00
26112;BME280;13829;48.990;8.346;2023-12-29T04:45:14;100445.28;;;10.33;100.00
26112;BME280;13829;48.990;8.346;2023-12-29T04:47:41;100443.59;;;10.39;100.00
26112;BME280;13829;48.990;8.346;2023-12-29T04:50:08;100443.59;;;10.41;100.00
26112;BME280;13829;48.990;8.346;2023-12-29T04:52:35;100445.41;;;10.45;100.00
26112;BME280;13829;48.990;8.346;2023-12-29T04:55:03;100446.22;;;10.39;100.00
26112;BME280;13829;48.990;8.346;2023-12-29T04:57:30;100442.72;;;10.42;100.00
26112;BME280;13829;48.990;8.346;2023-12-29T04:59:58;100451.34;;;10.27;100.00
26112;BME280;13829;48.990;8.346;2023-12-29T05:02:25;100448.84;;;10.38;100.00
26112;BME280;13829;48.990;8.346;2023-12-29T05:04:52;100444.53;;;10.48;100.00
26112;BME280;13829;48.990;8.346;2023-12-29T05:07:19;100452.38;;;10.43;100.00
26112;BME280;13829;48.990;8.346;2023-12-29T05:09:46;100455.91;;;10.45;100.00
26112;BME280;13829;48.990;8.346;2023-12-29T05:12:14;100440.88;;;10.35;100.00
26112;BME280;13829;48.990;8.346;2023-12-29T05:14:41;100441.69;;;10.21;100.00
26112;BME280;13829;48.990;8.346;2023-12-29T05:17:09;100439.94;;;10.17;100.00
26112;BME280;13829;48.990;8.346;2023-12-29T05:19:36;100429.44;;;10.23;100.00
26112;BME280;13829;48.990;8.346;2023-12-29T05:22:03;100431.88;;;9.97;100.00
26112;BME280;13829;48.990;8.346;2023-12-29T05:24:30;100429.28;;;10.00;100.00
26112;BME280;13829;48.990;8.346;2023-12-29T05:26:57;100423.16;;;10.04;100.00
26112;BME280;13829;48.990;8.346;2023-12-29T05:29:24;100431.84;;;9.95;100.00
26112;BME280;13829;48.990;8.346;2023-12-29T05:31:51;100433.72;;;10.07;100.00
26112;BME280;13829;48.990;8.346;2023-12-29T05:34:20;100433.66;;;10.00;100.00
26112;BME280;13829;48.990;8.346;2023-12-29T05:36:47;100438.75;;;9.84;100.00
26112;BME280;13829;48.990;8.346;2023-12-29T05:39:14;100429.16;;;9.88;100.00
26112;BME280;13829;48.990;8.346;2023-12-29T05:41:41;100429.16;;;9.86;100.00
26112;BME280;13829;48.990;8.346;2023-12-29T05:44:08;100422.94;;;9.75;100.00
26112;BME280;13829;48.990;8.346;2023-12-29T05:46:35;100421.09;;;9.68;100.00
26112;BME280;13829;48.990;8.346;2023-12-29T05:49:02;100429.81;;;9.59;100.00
26112;BME280;13829;48.990;8.346;2023-12-29T05:51:30;100423.59;;;9.49;100.00
26112;BME280;13829;48.990;8.346;2023-12-29T05:53:57;100423.66;;;9.55;100.00
26112;BME280;13829;48.990;8.346;2023-12-29T05:56:25;100418.41;;;9.58;100.00
26112;BME280;13829;48.990;8.346;2023-12-29T05:58:52;100423.66;;;9.58;100.00
26112;BME280;13829;48.990;8.346;2023-12-29T06:01:19;100422.72;;;9.50;100.00
26112;BME280;13829;48.990;8.346;2023-12-29T06:03:46;100425.38;;;9.56;100.00
26112;BME280;13829;48.990;8.346;2023-12-29T06:06:14;100421.03;;;9.57;100.00
26112;BME280;13829;48.990;8.346;2023-12-29T06:08:42;100418.22;;;9.40;100.00
26112;BME280;13829;48.990;8.346;2023-12-29T06:11:14;100420.91;;;9.43;100.00
26112;BME280;13829;48.990;8.346;2023-12-29T06:13:41;100417.41;;;9.45;100.00
26112;BME280;13829;48.990;8.346;2023-12-29T06:16:08;100422.59;;;9.38;100.00
26112;BME280;13829;48.990;8.346;2023-12-29T06:18:35;100422.75;;;9.55;100.00
26112;BME280;13829;48.990;8.346;2023-12-29T06:21:03;100425.31;;;9.47;100.00
26112;BME280;13829;48.990;8.346;2023-12-29T06:23:30;100422.66;;;9.44;100.00
26112;BME280;13829;48.990;8.346;2023-12-29T06:25:58;100420.19;;;9.59;100.00
26112;BME280;13829;48.990;8.346;2023-12-29T06:28:25;100418.47;;;9.68;100.00
26112;BME280;13829;48.990;8.346;2023-12-29T06:30:54;100425.38;;;9.56;100.00
26112;BME280;13829;48.990;8.346;2023-12-29T06:33:21;100414.88;;;9.56;100.00
26112;BME280;13829;48.990;8.346;2023-12-29T06:35:48;100421.94;;;9.60;100.00
26112;BME280;13829;48.990;8.346;2023-12-29T06:38:15;100423.66;;;9.55;100.00
26112;BME280;13829;48.990;8.346;2023-12-29T06:40:42;100415.78;;;9.57;100.00
26112;BME280;13829;48.990;8.346;2023-12-29T06:43:10;100414.88;;;9.53;100.00
26112;BME280;13829;48.990;8.346;2023-12-29T06:45:37;100417.50;;;9.56;100.00
26112;BME280;13829;48.990;8.346;2023-12-29T06:48:05;100415.78;;;9.55;100.00
26112;BME280;13829;48.990;8.346;2023-12-29T06:50:33;100407.91;;;9.58;100.00
26112;BME280;13829;48.990;8.346;2023-12-29T06:53:02;100399.19;;;9.62;100.00
26112;BME280;13829;48.990;8.346;2023-12-29T06:55:29;100407.84;;;9.52;100.00
26112;BME280;13829;48.990;8.346;2023-12-29T06:57:56;100403.44;;;9.50;100.00
26112;BME280;13829;48.990;8.346;2023-12-29T07:00:25;100409.63;;;9.53;100.00
26112;BME280;13829;48.990;8.346;2023-12-29T07:02:52;100414.84;;;9.50;100.00
26112;BME280;13829;48.990;8.346;2023-12-29T07:05:19;100414.94;;;9.59;100.00
26112;BME280;13829;48.990;8.346;2023-12-29T07:07:46;100417.59;;;9.66;100.00
26112;BME280;13829;48.990;8.346;2023-12-29T07:10:13;100418.47;;;9.63;100.00
26112;BME280;13829;48.990;8.346;2023-12-29T07:12:40;100427.34;;;9.79;100.00
26112;BME280;13829;48.990;8.346;2023-12-29T07:15:08;100426.53;;;9.86;100.00
26112;BME280;13829;48.990;8.346;2023-12-29T07:17:37;100417.84;;;9.92;100.00
26112;BME280;13829;48.990;8.346;2023-12-29T07:20:06;100416.09;;;9.95;100.00
26112;BME280;13829;48.990;8.346;2023-12-29T07:22:34;100410.78;;;9.86;100.00
26112;BME280;13829;48.990;8.346;2023-12-29T07:25:01;100416.06;;;9.92;100.00
26112;BME280;13829;48.990;8.346;2023-12-29T07:27:28;100413.50;;;10.02;100.00
26112;BME280;13829;48.990;8.346;2023-12-29T07:29:55;100412.59;;;9.95;100.00
26112;BME280;13829;48.990;8.346;2023-12-29T07:32:23;100413.50;;;9.97;100.00
26112;BME280;13829;48.990;8.346;2023-12-29T07:34:51;100420.63;;;10.18;100.00
26112;BME280;13829;48.990;8.346;2023-12-29T07:37:18;100418.00;;;10.15;100.00
26112;BME280;13829;48.990;8.346;2023-12-29T07:39:45;100419.78;;;10.21;100.00
26112;BME280;13829;48.990;8.346;2023-12-29T07:42:13;100420.66;;;10.20;100.00
26112;BME280;13829;48.990;8.346;2023-12-29T07:44:42;100424.16;;;10.23;100.00
26112;BME280;13829;48.990;8.346;2023-12-29T07:47:09;100417.22;;;10.28;100.00
26112;BME280;13829;48.990;8.346;2023-12-29T07:49:37;100424.22;;;10.29;100.00
26112;BME280;13829;48.990;8.346;2023-12-29T07:52:06;100421.59;;;10.28;100.00
26112;BME280;13829;48.990;8.346;2023-12-29T07:54:33;100420.69;;;10.24;100.00
26112;BME280;13829;48.990;8.346;2023-12-29T07:57:00;100424.22;;;10.29;100.00
26112;BME280;13829;48.990;8.346;2023-12-29T07:59:27;100419.84;;;10.33;100.00
26112;BME280;13829;48.990;8.346;2023-12-29T08:01:54;100424.28;;;10.36;100.00
26112;BME280;13829;48.990;8.346;2023-12-29T08:04:23;100431.28;;;10.34;100.00
26112;BME280;13829;48.990;8.346;2023-12-29T08:06:50;100429.59;;;10.40;100.00
26112;BME280;13829;48.990;8.346;2023-12-29T08:09:18;100434.88;;;10.47;100.00
26112;BME280;13829;48.990;8.346;2023-12-29T08:11:46;100432.25;;;10.50;100.00
26112;BME280;13829;48.990;8.346;2023-12-29T08:14:14;100423.56;;;10.62;100.00
26112;BME280;13829;48.990;8.346;2023-12-29T08:16:41;100424.38;;;10.51;100.00
26112;BME280;13829;48.990;8.346;2023-12-29T08:19:08;100435.81;;;10.58;100.00
26112;BME280;13829;48.990;8.346;2023-12-29T08:21:36;100441.94;;;10.55;100.00
26112;BME280;13829;48.990;8.346;2023-12-29T08:24:04;100437.47;;;10.40;100.00
26112;BME280;13829;48.990;8.346;2023-12-29T08:26:32;100436.50;;;10.31;100.00
26112;BME280;13829;48.990;8.346;2023-12-29T08:28:59;100436.56;;;10.37;100.00
26112;BME280;13829;48.990;8.346;2023-12-29T08:31:26;100444.50;;;10.46;100.00
26112;BME280;13829;48.990;8.346;2023-12-29T08:33:55;100443.59;;;10.41;100.00
26112;BME280;13829;48.990;8.346;2023-12-29T08:36:22;100445.34;;;10.39;100.00
26112;BME280;13829;48.990;8.346;2023-12-29T08:38:48;100451.53;;;10.49;100.00
26112;BME280;13829;48.990;8.346;2023-12-29T08:41:16;100448.94;;;10.53;100.00
26112;BME280;13829;48.990;8.346;2023-12-29T08:43:45;100452.44;;;10.52;100.00
26112;BME280;13829;48.990;8.346;2023-12-29T08:46:12;100457.66;;;10.46;100.00
26112;BME280;13829;48.990;8.346;2023-12-29T08:48:39;100461.19;;;10.45;100.00
26112;BME280;13829;48.990;8.346;2023-12-29T08:51:06;100455.91;;;10.50;100.00
26112;BME280;13829;48.990;8.346;2023-12-29T08:53:33;100463.03;;;10.65;100.00
26112;BME280;13829;48.990;8.346;2023-12-29T08:56:01;100463.00;;;10.55;100.00
26112;BME280;13829;48.990;8.346;2023-12-29T08:58:29;100457.72;;;10.58;100.00
26112;BME280;13829;48.990;8.346;2023-12-29T09:00:58;100460.44;;;10.74;100.00
26112;BME280;13829;48.990;8.346;2023-12-29T09:03:25;100456.06;;;10.79;100.00
26112;BME280;13829;48.990;8.346;2023-12-29T09:05:53;100455.28;;;10.91;100.00
26112;BME280;13829;48.990;8.346;2023-12-29T09:08:21;100456.19;;;11.05;100.00
26112;BME280;13829;48.990;8.346;2023-12-29T09:10:48;100451.81;;;11.03;100.00
26112;BME280;13829;48.990;8.346;2023-12-29T09:13:15;100450.94;;;11.04;100.00
26112;BME280;13829;48.990;8.346;2023-12-29T09:15:42;100461.50;;;11.08;100.00
26112;BME280;13829;48.990;8.346;2023-12-29T09:18:10;100459.72;;;11.09;100.00
26112;BME280;13829;48.990;8.346;2023-12-29T09:20:37;100458.00;;;11.20;100.00
26112;BME280;13829;48.990;8.346;2023-12-29T09:23:05;100452.78;;;11.25;100.00
26112;BME280;13829;48.990;8.346;2023-12-29T09:25:35;100459.81;;;11.34;100.00
26112;BME280;13829;48.990;8.346;2023-12-29T09:28:03;100451.94;;;11.52;100.00
26112;BME280;13829;48.990;8.346;2023-12-29T09:30:30;100460.72;;;11.48;100.00
26112;BME280;13829;48.990;8.346;2023-12-29T09:32:57;100458.09;;;11.53;100.00
26112;BME280;13829;48.990;8.346;2023-12-29T09:35:26;100463.34;;;11.48;100.00
26112;BME280;13829;48.990;8.346;2023-12-29T09:37:53;100458.09;;;11.45;100.00
26112;BME280;13829;48.990;8.346;2023-12-29T09:40:20;100462.47;;;11.51;100.00
26112;BME280;13829;48.990;8.346;2023-12-29T09:42:48;100474.75;;;11.46;100.00
26112;BME280;13829;48.990;8.346;2023-12-29T09:45:23;100466.00;;;11.54;100.00
26112;BME280;13829;48.990;8.346;2023-12-29T09:47:52;100473.03;;;11.60;100.00
26112;BME280;13829;48.990;8.346;2023-12-29T09:50:21;100464.28;;;11.86;100.00
26112;BME280;13829;48.990;8.346;2023-12-29T09:52:50;100470.44;;;11.93;100.00
26112;BME280;13829;48.990;8.346;2023-12-29T09:55:19;100465.16;;;11.86;100.00
26112;BME280;13829;48.990;8.346;2023-12-29T09:57:47;100455.50;;;11.93;100.00
26112;BME280;13829;48.990;8.346;2023-12-29T10:00:17;100459.91;;;11.96;100.00
26112;BME280;13829;48.990;8.346;2023-12-29T10:02:48;100457.31;;;11.97;100.00
26112;BME280;13829;48.990;8.346;2023-12-29T10:05:17;100452.88;;;11.91;100.00
26112;BME280;13829;48.990;8.346;2023-12-29T10:07:48;100453.75;;;11.94;100.00
26112;BME280;13829;48.990;8.346;2023-12-29T10:10:17;100447.63;;;11.98;100.00
26112;BME280;13829;48.990;8.346;2023-12-29T10:12:47;100449.38;;;11.89;100.00
26112;BME280;13829;48.990;8.346;2023-12-29T10:15:22;100443.19;;;11.89;100.00
26112;BME280;13829;48.990;8.346;2023-12-29T10:17:59;100445.84;;;12.04;100.00
26112;BME280;13829;48.990;8.346;2023-12-29T10:20:44;100440.56;;;12.12;100.00
26112;BME280;13829;48.990;8.346;2023-12-29T10:23:19;100436.19;;;12.16;100.00
26112;BME280;13829;48.990;8.346;2023-12-29T10:25:48;100437.06;;;12.36;100.00
26112;BME280;13829;48.990;8.346;2023-12-29T10:28:16;100428.25;;;12.45;100.00
26112;BME280;13829;48.990;8.346;2023-12-29T10:30:44;100427.31;;;12.59;100.00
26112;BME280;13829;48.990;8.346;2023-12-29T10:33:19;100421.19;;;12.56;100.00
26112;BME280;13829;48.990;8.346;2023-12-29T10:35:58;100415.03;;;12.50;100.00
26112;BME280;13829;48.990;8.346;2023-12-29T10:38:29;100418.56;;;12.50;100.00
26112;BME280;13829;48.990;8.346;2023-12-29T10:43:38;100399.19;;;12.56;100.00
26112;BME280;13829;48.990;8.346;2023-12-29T10:46:07;100393.03;;;12.54;100.00
26112;BME280;13829;48.990;8.346;2023-12-29T10:48:35;100396.53;;;12.57;100.00
26112;BME280;13829;48.990;8.346;2023-12-29T10:51:02;100395.66;;;12.54;100.00
26112;BME280;13829;48.990;8.346;2023-12-29T10:53:32;100396.56;;;12.54;100.00
26112;BME280;13829;48.990;8.346;2023-12-29T10:56:00;100401.81;;;12.61;99.86
26112;BME280;13829;48.990;8.346;2023-12-29T10:58:28;100397.44;;;12.58;98.88
26112;BME280;13829;48.990;8.346;2023-12-29T11:00:55;100399.19;;;12.59;100.00
26112;BME280;13829;48.990;8.346;2023-12-29T11:03:23;100393.03;;;12.55;99.22
26112;BME280;13829;48.990;8.346;2023-12-29T11:05:51;100385.06;;;12.72;98.25
26112;BME280;13829;48.990;8.346;2023-12-29T11:08:25;100371.88;;;12.68;97.39
26112;BME280;13829;48.990;8.346;2023-12-29T11:10:55;100378.91;;;12.72;96.61
26112;BME280;13829;48.990;8.346;2023-12-29T11:13:22;100366.53;;;12.80;95.79
26112;BME280;13829;48.990;8.346;2023-12-29T11:15:52;100377.97;;;12.82;95.34
26112;BME280;13829;48.990;8.346;2023-12-29T11:18:20;100368.28;;;12.87;94.36
26112;BME280;13829;48.990;8.346;2023-12-29T11:20:47;100360.34;;;12.87;94.42
26112;BME280;13829;48.990;8.346;2023-12-29T11:23:14;100365.63;;;12.84;93.78
26112;BME280;13829;48.990;8.346;2023-12-29T11:25:44;100361.19;;;12.97;92.34
26112;BME280;13829;48.990;8.346;2023-12-29T11:28:14;100361.25;;;12.83;92.04
26112;BME280;13829;48.990;8.346;2023-12-29T11:30:41;100367.41;;;12.82;92.70
26112;BME280;13829;48.990;8.346;2023-12-29T11:33:14;100370.91;;;12.87;93.02
26112;BME280;13829;48.990;8.346;2023-12-29T11:35:51;100368.28;;;12.87;92.16
26112;BME280;13829;48.990;8.346;2023-12-29T11:38:33;100362.97;;;12.89;92.28
26112;BME280;13829;48.990;8.346;2023-12-29T11:41:11;100361.19;;;12.93;91.69
26112;BME280;13829;48.990;8.346;2023-12-29T11:43:42;100358.53;;;13.00;92.53
26112;BME280;13829;48.990;8.346;2023-12-29T11:46:32;100356.75;;;13.04;91.45
26112;BME280;13829;48.990;8.346;2023-12-29T11:49:00;100363.75;;;13.11;89.95
26112;BME280;13829;48.990;8.346;2023-12-29T11:51:32;100357.66;;;12.97;90.57
26112;BME280;13829;48.990;8.346;2023-12-29T11:54:00;100356.84;;;12.85;92.31
26112;BME280;13829;48.990;8.346;2023-12-29T11:56:34;100355.97;;;12.80;92.58
26112;BME280;13829;48.990;8.346;2023-12-29T11:59:18;100353.31;;;12.91;92.96
26112;BME280;13829;48.990;8.346;2023-12-29T12:01:47;100358.50;;;13.02;93.72
26112;BME280;13829;48.990;8.346;2023-12-29T12:04:37;100348.78;;;13.07;91.93
26112;BME280;13829;48.990;8.346;2023-12-29T12:07:09;100349.63;;;13.15;92.57
26112;BME280;13829;48.990;8.346;2023-12-29T12:09:36;100346.19;;;12.99;91.74
26112;BME280;13829;48.990;8.346;2023-12-29T12:12:05;100340.91;;;13.04;91.11
26112;BME280;13829;48.990;8.346;2023-12-29T12:14:53;100343.50;;;13.10;90.61
26112;BME280;13829;48.990;8.346;2023-12-29T12:17:32;100352.28;;;13.12;92.04
26112;BME280;13829;48.990;8.346;2023-12-29T12:20:03;100342.66;;;13.02;90.91
26112;BME280;13829;48.990;8.346;2023-12-29T12:22:31;100343.56;;;12.98;92.90
26112;BME280;13829;48.990;8.346;2023-12-29T12:24:59;100337.47;;;12.88;93.22
26112;BME280;13829;48.990;8.346;2023-12-29T12:27:27;100343.66;;;12.84;93.95
26112;BME280;13829;48.990;8.346;2023-12-29T12:29:58;100338.34;;;12.85;94.77
26112;BME280;13829;48.990;8.346;2023-12-29T12:32:27;100337.41;;;12.99;94.20
26112;BME280;13829;48.990;8.346;2023-12-29T12:34:54;100337.41;;;13.00;93.57
26112;BME280;13829;48.990;8.346;2023-12-29T12:37:23;100341.78;;;13.06;93.49
26112;BME280;13829;48.990;8.346;2023-12-29T12:39:50;100334.66;;;13.14;92.18
26112;BME280;13829;48.990;8.346;2023-12-29T12:42:19;100325.94;;;13.03;92.45
26112;BME280;13829;48.990;8.346;2023-12-29T12:45:02;100333.00;;;12.98;93.07
26112;BME280;13829;48.990;8.346;2023-12-29T12:47:35;100338.22;;;13.07;92.82
26112;BME280;13829;48.990;8.346;2023-12-29T12:50:05;100335.66;;;13.01;93.94
26112;BME280;13829;48.990;8.346;2023-12-29T12:52:35;100341.00;;;12.88;93.65